createdAt,value
2023-05-01T00:02:46.341Z,104.60
2023-05-01T00:07:49.264Z,99.77
2023-05-01T00:12:51.415Z,148.43
2023-05-01T00:17:54.638Z,201.00
2023-05-01T00:22:57.971Z,222.70
2023-05-01T00:28:00.200Z,231.83
2023-05-01T00:33:02.514Z,222.57
2023-05-01T00:38:04.846Z,218.50
2023-05-01T00:43:07.057Z,197.57
2023-05-01T00:48:11.006Z,127.33
2023-05-01T00:53:13.484Z,101.43
2023-05-01T00:58:18.912Z,105.60
2023-05-01T01:03:21.749Z,149.40
2023-05-01T01:08:32.560Z,210.00
2023-05-01T01:13:54.933Z,232.90
2023-05-01T01:19:38.705Z,228.30
2023-05-01T01:24:59.336Z,106.70
2023-05-01T01:30:32.390Z,219.23
2023-05-01T01:35:37.011Z,213.90
2023-05-01T01:40:53.238Z,126.57
2023-05-01T01:46:03.829Z,210.23
2023-05-01T01:51:13.852Z,201.23
2023-05-01T01:56:20.796Z,109.23
2023-05-01T02:01:25.079Z,200.20
2023-05-01T02:06:29.932Z,234.83
2023-05-01T02:11:33.657Z,228.60
2023-05-01T02:16:37.534Z,221.83
2023-05-01T02:21:41.346Z,125.87
2023-05-01T02:26:49.772Z,109.60
2023-05-01T02:31:52.210Z,175.37
2023-05-01T02:36:54.574Z,207.27
2023-05-01T02:42:01.749Z,212.93
2023-05-01T02:47:07.299Z,220.47
2023-05-01T02:52:11.673Z,140.50
2023-05-01T02:57:14.308Z,109.47
2023-05-01T03:02:16.429Z,111.50
2023-05-01T03:07:18.654Z,108.13
2023-05-01T03:12:21.864Z,147.23
2023-05-01T03:17:24.033Z,205.97
2023-05-01T03:22:33.211Z,231.13
2023-05-01T03:27:35.574Z,225.10
2023-05-01T03:32:37.800Z,163.70
2023-05-01T03:37:42.208Z,108.97
2023-05-01T03:42:44.675Z,111.97
2023-05-01T03:47:54.989Z,196.57
2023-05-01T03:52:57.767Z,215.57
2023-05-01T03:57:59.969Z,213.30
2023-05-01T04:08:05.328Z,186.47
2023-05-01T04:13:07.654Z,148.40
2023-05-01T04:18:10.957Z,82.40
2023-05-01T04:23:13.109Z,76.13
2023-05-01T04:28:15.279Z,75.13
2023-05-01T04:33:17.568Z,70.63
2023-05-01T04:38:19.975Z,59.87
2023-05-01T04:43:24.153Z,179.57
2023-05-01T04:48:26.530Z,175.60
2023-05-01T04:53:29.378Z,192.27
2023-05-01T04:58:32.433Z,167.87
2023-05-01T05:03:41.285Z,62.17
2023-05-01T05:08:45.639Z,83.30
2023-05-01T05:13:48.157Z,80.40
2023-05-01T05:18:50.716Z,112.03
2023-05-01T05:23:54.128Z,171.73
2023-05-01T05:28:56.517Z,229.13
2023-05-01T05:33:58.926Z,199.73
2023-05-01T05:39:01.199Z,211.63
2023-05-01T05:44:03.766Z,207.60
2023-05-01T05:49:06.896Z,208.37
2023-05-01T05:54:09.166Z,130.80
2023-05-01T05:59:11.991Z,95.10
2023-05-01T06:04:17.016Z,100.50
2023-05-01T06:09:20.408Z,97.37
2023-05-01T06:14:22.878Z,166.40
2023-05-01T06:19:25.126Z,190.20
2023-05-01T06:24:36.274Z,229.60
2023-05-01T06:29:38.689Z,148.03
2023-05-01T06:34:40.996Z,101.87
2023-05-01T06:39:43.258Z,112.17
2023-05-01T06:44:45.598Z,96.30
2023-05-01T06:49:47.834Z,96.00
2023-05-01T06:54:49.992Z,100.70
2023-05-01T06:59:52.188Z,142.57
2023-05-01T07:04:54.532Z,189.13
2023-05-01T07:09:57.106Z,207.27
2023-05-01T07:15:00.026Z,193.57
2023-05-01T07:20:02.693Z,148.87
2023-05-01T07:25:05.686Z,171.10
2023-05-01T07:30:09.966Z,108.07
2023-05-01T07:35:12.498Z,50.87
2023-05-01T07:40:14.756Z,65.17
2023-05-01T07:45:17.078Z,45.90
2023-05-01T07:50:20.887Z,79.27
2023-05-01T07:55:23.986Z,135.80
2023-05-01T08:00:26.057Z,156.60
2023-05-01T08:05:28.194Z,183.37
2023-05-01T08:10:30.567Z,168.87
2023-05-01T08:15:32.723Z,186.20
2023-05-01T08:20:36.920Z,153.97
2023-05-01T08:25:39.055Z,114.10
2023-05-01T08:30:41.252Z,78.90
2023-05-01T08:35:43.659Z,73.20
2023-05-01T08:40:53.701Z,76.90
2023-05-01T08:45:59.393Z,200.23
2023-05-01T08:51:04.326Z,213.53
2023-05-01T08:56:08.519Z,213.37
2023-05-01T09:01:16.362Z,117.37
2023-05-01T09:06:20.321Z,98.10
2023-05-01T09:11:24.808Z,166.63
2023-05-01T09:16:27.374Z,215.53
2023-05-01T09:21:32.159Z,232.47
2023-05-01T09:26:37.086Z,235.00
2023-05-01T09:31:39.247Z,156.27
2023-05-01T09:36:47.740Z,118.10
2023-05-01T09:41:52.960Z,122.27
2023-05-01T09:46:55.586Z,238.40
2023-05-01T09:52:12.077Z,275.67
2023-05-01T09:57:14.305Z,140.30
2023-05-01T10:02:30.945Z,138.30
2023-05-01T10:07:34.435Z,260.87
2023-05-01T10:12:37.627Z,255.87
2023-05-01T10:17:41.892Z,171.33
2023-05-01T10:22:44.657Z,142.70
2023-05-01T10:27:48.685Z,321.30
2023-05-01T10:32:52.970Z,218.30
2023-05-01T10:38:07.259Z,251.83
2023-05-01T10:43:31.080Z,190.03
2023-05-01T10:48:42.633Z,291.07
2023-05-01T10:53:46.754Z,142.43
2023-05-01T10:59:06.604Z,199.62
2023-05-01T11:04:23.001Z,152.93
2023-05-01T11:09:49.566Z,242.47
2023-05-01T11:14:55.943Z,306.80
2023-05-01T11:19:58.800Z,254.80
2023-05-01T11:25:04.825Z,366.47
2023-05-01T11:30:08.209Z,261.80
2023-05-01T11:35:30.086Z,171.97
2023-05-01T11:40:35.248Z,258.80
2023-05-01T11:45:38.128Z,261.57
2023-05-01T11:50:40.270Z,178.63
2023-05-01T11:55:42.483Z,149.73
2023-05-01T12:00:44.759Z,147.47
2023-05-01T12:05:49.240Z,154.17
2023-05-01T12:10:59.057Z,193.53
2023-05-01T12:16:01.936Z,270.30
2023-05-01T12:21:04.116Z,284.63
2023-05-01T12:26:25.891Z,267.63
2023-05-01T12:31:29.764Z,278.93
2023-05-01T12:36:35.178Z,267.50
2023-05-01T12:41:46.910Z,276.33
2023-05-01T12:47:04.574Z,172.93
2023-05-01T12:52:09.565Z,267.77
2023-05-01T12:57:15.074Z,170.57
2023-05-01T13:02:18.652Z,173.40
2023-05-01T13:07:21.219Z,182.87
2023-05-01T13:12:25.359Z,242.00
2023-05-01T13:17:31.435Z,303.13
2023-05-01T13:22:36.157Z,296.17
2023-05-01T13:27:38.367Z,285.17
2023-05-01T13:32:42.528Z,197.60
2023-05-01T13:37:44.684Z,236.70
2023-05-01T13:42:48.488Z,162.07
2023-05-01T13:47:52.174Z,162.73
2023-05-01T13:52:54.360Z,246.57
2023-05-01T13:57:56.683Z,278.90
2023-05-01T14:02:59.989Z,260.23
2023-05-01T14:08:02.505Z,266.93
2023-05-01T14:13:05.298Z,259.03
2023-05-01T14:18:08.119Z,271.17
2023-05-01T14:23:10.926Z,195.07
2023-05-01T14:28:13.376Z,157.87
2023-05-01T14:33:16.354Z,157.83
2023-05-01T14:38:21.545Z,151.60
2023-05-01T14:43:23.679Z,234.13
2023-05-01T14:48:34.165Z,256.50
2023-05-01T14:53:36.470Z,275.03
2023-05-01T14:58:39.230Z,271.77
2023-05-01T15:03:43.949Z,228.20
2023-05-01T15:08:47.004Z,150.43
2023-05-01T15:13:50.627Z,144.83
2023-05-01T15:18:52.845Z,192.37
2023-05-01T15:23:55.255Z,234.23
2023-05-01T15:28:57.422Z,243.73
2023-05-01T15:33:59.583Z,214.20
2023-05-01T15:39:01.733Z,217.27
2023-05-01T15:44:06.039Z,208.67
2023-05-01T15:49:10.229Z,192.53
2023-05-01T15:54:12.400Z,89.53
2023-05-01T15:59:14.644Z,97.07
2023-05-01T16:04:16.846Z,70.83
2023-05-01T16:09:19.359Z,74.93
2023-05-01T16:14:21.808Z,122.07
2023-05-01T16:19:24.204Z,173.93
2023-05-01T16:24:26.631Z,211.53
2023-05-01T16:29:29.215Z,212.60
2023-05-01T16:34:31.504Z,205.50
2023-05-01T16:39:38.627Z,216.03
2023-05-01T16:44:41.674Z,111.30
2023-05-01T16:49:44.503Z,88.47
2023-05-01T16:54:46.673Z,91.97
2023-05-01T16:59:49.526Z,91.60
2023-05-01T17:04:52.017Z,92.53
2023-05-01T17:09:55.047Z,194.63
2023-05-01T17:14:57.340Z,202.90
2023-05-01T17:19:59.902Z,216.73
2023-05-01T17:25:04.043Z,210.93
2023-05-01T17:30:07.445Z,235.13
2023-05-01T17:35:10.043Z,146.50
2023-05-01T17:40:12.619Z,105.97
2023-05-01T17:45:14.926Z,103.77
2023-05-01T17:50:17.183Z,105.90
2023-05-01T17:55:19.637Z,111.50
2023-05-01T18:00:23.067Z,126.63
2023-05-01T18:05:25.528Z,215.93
2023-05-01T18:10:31.313Z,233.50
2023-05-01T18:15:33.691Z,226.20
2023-05-01T18:20:36.118Z,238.10
2023-05-01T18:25:39.504Z,227.33
2023-05-01T18:30:41.942Z,155.83
2023-05-01T18:35:44.124Z,108.87
2023-05-01T18:40:47.761Z,107.37
2023-05-01T18:45:49.961Z,108.67
2023-05-01T18:51:07.087Z,146.40
2023-05-01T18:56:09.780Z,117.37
2023-05-01T19:01:12.226Z,89.63
2023-05-01T19:06:14.483Z,84.53
2023-05-01T19:11:18.538Z,73.00
2023-05-01T19:16:20.834Z,75.07
2023-05-01T19:21:23.888Z,116.30
2023-05-01T19:26:26.428Z,184.20
2023-05-01T19:31:28.579Z,206.23
2023-05-01T19:36:30.850Z,201.13
2023-05-01T19:41:33.204Z,165.83
2023-05-01T19:46:35.433Z,178.83
2023-05-01T19:51:38.185Z,187.13
2023-05-01T19:56:40.471Z,115.53
2023-05-01T20:01:42.790Z,75.27
2023-05-01T20:06:45.137Z,73.10
2023-05-01T20:11:48.657Z,75.53
2023-05-01T20:16:52.389Z,58.60
2023-05-01T20:21:54.647Z,162.17
2023-05-01T20:26:58.348Z,194.07
2023-05-01T20:32:00.586Z,209.63
2023-05-01T20:37:03.204Z,228.33
2023-05-01T20:42:05.395Z,215.70
2023-05-01T20:47:07.749Z,210.20
2023-05-01T20:52:10.064Z,174.30
2023-05-01T20:57:12.197Z,125.23
2023-05-01T21:02:16.316Z,105.87
2023-05-01T21:07:18.772Z,108.50
2023-05-01T21:12:21.025Z,100.03
2023-05-01T21:17:23.364Z,123.13
2023-05-01T21:22:26.049Z,192.77
2023-05-01T21:27:28.519Z,224.43
2023-05-01T21:32:40.062Z,227.27
2023-05-01T21:37:43.899Z,122.37
2023-05-01T21:42:46.814Z,101.17
2023-05-01T21:47:51.607Z,105.13
2023-05-01T21:52:53.854Z,142.33
2023-05-01T21:57:58.203Z,196.47
2023-05-01T22:03:05.906Z,209.07
2023-05-01T22:08:08.168Z,216.53
2023-05-01T22:13:11.602Z,145.47
2023-05-01T22:18:17.798Z,69.67
2023-05-01T22:23:20.081Z,54.33
2023-05-01T22:28:22.814Z,96.27
2023-05-01T22:33:25.028Z,150.43
2023-05-01T22:38:27.173Z,197.47
2023-05-01T22:43:29.348Z,206.47
2023-05-01T22:48:32.379Z,202.10
2023-05-01T22:53:34.501Z,208.07
2023-05-01T22:58:37.205Z,211.27
2023-05-01T23:03:39.614Z,205.90
2023-05-01T23:08:41.884Z,133.03
2023-05-01T23:13:49.603Z,102.30
2023-05-01T23:18:52.428Z,100.97
2023-05-01T23:23:54.728Z,139.63
2023-05-01T23:28:57.185Z,157.87
2023-05-01T23:34:02.752Z,208.80
2023-05-01T23:39:05.134Z,164.60
2023-05-01T23:44:08.394Z,168.07
2023-05-01T23:49:10.720Z,121.07
2023-05-01T23:54:12.877Z,82.80
2023-05-01T23:59:15.207Z,91.43
